sensor_id;sensor_type;location;lat;lon;timestamp;P1;durP1;ratioP1;P2;durP2;ratioP2
29934;SDS011;19905;53.370;-6.314;2024-01-30T00:01:24;0.55;;;0.52;;
29934;SDS011;19905;53.370;-6.314;2024-01-30T00:03:53;0.70;;;0.70;;
29934;SDS011;19905;53.370;-6.314;2024-01-30T00:06:21;0.28;;;0.28;;
29934;SDS011;19905;53.370;-6.314;2024-01-30T00:08:50;0.40;;;0.40;;
29934;SDS011;19905;53.370;-6.314;2024-01-30T00:11:20;0.30;;;0.30;;
29934;SDS011;19905;53.370;-6.314;2024-01-30T00:13:50;0.95;;;0.95;;
29934;SDS011;19905;53.370;-6.314;2024-01-30T00:16:22;4.75;;;1.55;;
29934;SDS011;19905;53.370;-6.314;2024-01-30T00:18:52;0.30;;;0.30;;
29934;SDS011;19905;53.370;-6.314;2024-01-30T00:21:21;0.60;;;0.60;;
29934;SDS011;19905;53.370;-6.314;2024-01-30T00:23:50;0.40;;;0.40;;
29934;SDS011;19905;53.370;-6.314;2024-01-30T00:26:18;0.30;;;0.30;;
29934;SDS011;19905;53.370;-6.314;2024-01-30T00:28:47;0.28;;;0.28;;
29934;SDS011;19905;53.370;-6.314;2024-01-30T00:31:17;0.30;;;0.30;;
29934;SDS011;19905;53.370;-6.314;2024-01-30T00:33:45;0.30;;;0.30;;
29934;SDS011;19905;53.370;-6.314;2024-01-30T00:36:15;0.40;;;0.40;;
29934;SDS011;19905;53.370;-6.314;2024-01-30T00:38:44;0.38;;;0.38;;
29934;SDS011;19905;53.370;-6.314;2024-01-30T00:41:12;0.20;;;0.20;;
29934;SDS011;19905;53.370;-6.314;2024-01-30T00:43:40;0.28;;;0.28;;
29934;SDS011;19905;53.370;-6.314;2024-01-30T00:46:09;0.30;;;0.30;;
29934;SDS011;19905;53.370;-6.314;2024-01-30T00:48:37;0.32;;;0.32;;
29934;SDS011;19905;53.370;-6.314;2024-01-30T00:51:06;0.30;;;0.30;;
29934;SDS011;19905;53.370;-6.314;2024-01-30T00:53:36;0.20;;;0.20;;
29934;SDS011;19905;53.370;-6.314;2024-01-30T00:56:05;1.02;;;1.00;;
29934;SDS011;19905;53.370;-6.314;2024-01-30T00:58:36;0.22;;;0.22;;
29934;SDS011;19905;53.370;-6.314;2024-01-30T01:01:04;1.13;;;0.70;;
29934;SDS011;19905;53.370;-6.314;2024-01-30T01:03:34;0.50;;;0.50;;
29934;SDS011;19905;53.370;-6.314;2024-01-30T01:06:03;0.65;;;0.65;;
29934;SDS011;19905;53.370;-6.314;2024-01-30T01:08:32;0.30;;;0.30;;
29934;SDS011;19905;53.370;-6.314;2024-01-30T01:11:01;0.40;;;0.40;;
29934;SDS011;19905;53.370;-6.314;2024-01-30T01:13:30;0.88;;;0.77;;
29934;SDS011;19905;53.370;-6.314;2024-01-30T01:15:58;0.30;;;0.30;;
29934;SDS011;19905;53.370;-6.314;2024-01-30T01:18:27;0.47;;;0.47;;
29934;SDS011;19905;53.370;-6.314;2024-01-30T01:20:55;0.20;;;0.20;;
29934;SDS011;19905;53.370;-6.314;2024-01-30T01:23:24;0.30;;;0.30;;
29934;SDS011;19905;53.370;-6.314;2024-01-30T01:25:52;0.40;;;0.40;;
29934;SDS011;19905;53.370;-6.314;2024-01-30T01:28:27;0.30;;;0.30;;
29934;SDS011;19905;53.370;-6.314;2024-01-30T01:30:56;0.77;;;0.50;;
29934;SDS011;19905;53.370;-6.314;2024-01-30T01:33:32;0.43;;;0.43;;
29934;SDS011;19905;53.370;-6.314;2024-01-30T01:36:01;0.40;;;0.40;;
29934;SDS011;19905;53.370;-6.314;2024-01-30T01:38:30;0.20;;;0.20;;
29934;SDS011;19905;53.370;-6.314;2024-01-30T01:40:59;0.95;;;0.95;;
29934;SDS011;19905;53.370;-6.314;2024-01-30T01:43:30;0.45;;;0.45;;
29934;SDS011;19905;53.370;-6.314;2024-01-30T01:45:59;0.30;;;0.30;;
29934;SDS011;19905;53.370;-6.314;2024-01-30T01:48:28;0.20;;;0.20;;
29934;SDS011;19905;53.370;-6.314;2024-01-30T01:50:57;0.30;;;0.30;;
29934;SDS011;19905;53.370;-6.314;2024-01-30T01:53:28;0.28;;;0.28;;
29934;SDS011;19905;53.370;-6.314;2024-01-30T01:55:57;0.20;;;0.20;;
29934;SDS011;19905;53.370;-6.314;2024-01-30T01:58:25;0.63;;;0.63;;
29934;SDS011;19905;53.370;-6.314;2024-01-30T02:00:58;0.55;;;0.55;;
29934;SDS011;19905;53.370;-6.314;2024-01-30T02:03:27;0.30;;;0.30;;
29934;SDS011;19905;53.370;-6.314;2024-01-30T02:05:56;0.25;;;0.25;;
29934;SDS011;19905;53.370;-6.314;2024-01-30T02:08:25;0.20;;;0.20;;
29934;SDS011;19905;53.370;-6.314;2024-01-30T02:10:53;0.30;;;0.30;;
29934;SDS011;19905;53.370;-6.314;2024-01-30T02:13:22;0.20;;;0.20;;
29934;SDS011;19905;53.370;-6.314;2024-01-30T02:15:51;0.60;;;0.60;;
29934;SDS011;19905;53.370;-6.314;2024-01-30T02:18:21;0.40;;;0.40;;
29934;SDS011;19905;53.370;-6.314;2024-01-30T02:20:53;0.40;;;0.40;;
29934;SDS011;19905;53.370;-6.314;2024-01-30T02:23:23;0.90;;;0.55;;
29934;SDS011;19905;53.370;-6.314;2024-01-30T02:25:52;0.30;;;0.30;;
29934;SDS011;19905;53.370;-6.314;2024-01-30T02:28:21;0.98;;;0.45;;
29934;SDS011;19905;53.370;-6.314;2024-01-30T02:30:49;0.43;;;0.43;;
29934;SDS011;19905;53.370;-6.314;2024-01-30T02:33:18;0.40;;;0.40;;
29934;SDS011;19905;53.370;-6.314;2024-01-30T02:35:48;0.20;;;0.20;;
29934;SDS011;19905;53.370;-6.314;2024-01-30T02:38:16;0.35;;;0.35;;
29934;SDS011;19905;53.370;-6.314;2024-01-30T02:40:48;0.20;;;0.20;;
29934;SDS011;19905;53.370;-6.314;2024-01-30T02:43:16;0.35;;;0.35;;
29934;SDS011;19905;53.370;-6.314;2024-01-30T02:48:16;0.30;;;0.30;;
29934;SDS011;19905;53.370;-6.314;2024-01-30T02:50:44;0.30;;;0.30;;
29934;SDS011;19905;53.370;-6.314;2024-01-30T02:53:14;0.40;;;0.40;;
29934;SDS011;19905;53.370;-6.314;2024-01-30T02:55:42;0.20;;;0.20;;
29934;SDS011;19905;53.370;-6.314;2024-01-30T02:58:14;0.30;;;0.30;;
29934;SDS011;19905;53.370;-6.314;2024-01-30T03:00:42;0.20;;;0.20;;
29934;SDS011;19905;53.370;-6.314;2024-01-30T03:03:10;0.38;;;0.38;;
29934;SDS011;19905;53.370;-6.314;2024-01-30T03:05:39;0.30;;;0.30;;
29934;SDS011;19905;53.370;-6.314;2024-01-30T03:08:07;0.20;;;0.20;;
29934;SDS011;19905;53.370;-6.314;2024-01-30T03:10:35;7.22;;;1.17;;
29934;SDS011;19905;53.370;-6.314;2024-01-30T03:13:04;0.80;;;0.45;;
29934;SDS011;19905;53.370;-6.314;2024-01-30T03:15:34;0.20;;;0.20;;
29934;SDS011;19905;53.370;-6.314;2024-01-30T03:18:02;0.80;;;0.80;;
29934;SDS011;19905;53.370;-6.314;2024-01-30T03:20:31;0.50;;;0.50;;
29934;SDS011;19905;53.370;-6.314;2024-01-30T03:23:01;0.22;;;0.22;;
29934;SDS011;19905;53.370;-6.314;2024-01-30T03:25:29;0.20;;;0.20;;
29934;SDS011;19905;53.370;-6.314;2024-01-30T03:28:00;0.20;;;0.20;;
29934;SDS011;19905;53.370;-6.314;2024-01-30T03:30:28;0.30;;;0.30;;
29934;SDS011;19905;53.370;-6.314;2024-01-30T03:32:58;0.30;;;0.30;;
29934;SDS011;19905;53.370;-6.314;2024-01-30T03:35:26;0.30;;;0.30;;
29934;SDS011;19905;53.370;-6.314;2024-01-30T03:37:55;0.20;;;0.20;;
29934;SDS011;19905;53.370;-6.314;2024-01-30T03:40:23;0.20;;;0.20;;
29934;SDS011;19905;53.370;-6.314;2024-01-30T03:42:52;0.20;;;0.20;;
29934;SDS011;19905;53.370;-6.314;2024-01-30T03:45:21;0.20;;;0.20;;
29934;SDS011;19905;53.370;-6.314;2024-01-30T03:47:50;0.30;;;0.30;;
29934;SDS011;19905;53.370;-6.314;2024-01-30T03:50:20;0.20;;;0.20;;
29934;SDS011;19905;53.370;-6.314;2024-01-30T03:52:49;0.57;;;0.57;;
29934;SDS011;19905;53.370;-6.314;2024-01-30T03:55:18;3.30;;;0.93;;
29934;SDS011;19905;53.370;-6.314;2024-01-30T03:57:46;0.20;;;0.20;;
29934;SDS011;19905;53.370;-6.314;2024-01-30T04:00:14;0.25;;;0.25;;
29934;SDS011;19905;53.370;-6.314;2024-01-30T04:02:43;0.28;;;0.28;;
29934;SDS011;19905;53.370;-6.314;2024-01-30T04:05:13;0.20;;;0.20;;
29934;SDS011;19905;53.370;-6.314;2024-01-30T04:07:42;0.10;;;0.10;;
29934;SDS011;19905;53.370;-6.314;2024-01-30T04:10:11;0.30;;;0.30;;
29934;SDS011;19905;53.370;-6.314;2024-01-30T04:12:39;0.20;;;0.20;;
29934;SDS011;19905;53.370;-6.314;2024-01-30T04:15:08;0.38;;;0.38;;
29934;SDS011;19905;53.370;-6.314;2024-01-30T04:17:36;0.25;;;0.25;;
29934;SDS011;19905;53.370;-6.314;2024-01-30T04:20:05;0.30;;;0.30;;
29934;SDS011;19905;53.370;-6.314;2024-01-30T04:22:34;0.88;;;0.85;;
29934;SDS011;19905;53.370;-6.314;2024-01-30T04:25:04;0.20;;;0.20;;
29934;SDS011;19905;53.370;-6.314;2024-01-30T04:27:32;0.20;;;0.20;;
29934;SDS011;19905;53.370;-6.314;2024-01-30T04:30:01;0.30;;;0.30;;
29934;SDS011;19905;53.370;-6.314;2024-01-30T04:32:31;0.30;;;0.30;;
29934;SDS011;19905;53.370;-6.314;2024-01-30T04:34:59;1.25;;;1.15;;
29934;SDS011;19905;53.370;-6.314;2024-01-30T04:37:30;0.77;;;0.60;;
29934;SDS011;19905;53.370;-6.314;2024-01-30T04:40:00;0.20;;;0.20;;
29934;SDS011;19905;53.370;-6.314;2024-01-30T04:42:31;0.20;;;0.20;;
29934;SDS011;19905;53.370;-6.314;2024-01-30T04:45:01;0.30;;;0.30;;
29934;SDS011;19905;53.370;-6.314;2024-01-30T04:47:30;0.30;;;0.30;;
29934;SDS011;19905;53.370;-6.314;2024-01-30T04:49:58;0.30;;;0.30;;
29934;SDS011;19905;53.370;-6.314;2024-01-30T04:52:26;0.75;;;0.75;;
29934;SDS011;19905;53.370;-6.314;2024-01-30T04:54:56;0.30;;;0.30;;
29934;SDS011;19905;53.370;-6.314;2024-01-30T04:57:25;0.20;;;0.20;;
29934;SDS011;19905;53.370;-6.314;2024-01-30T04:59:54;0.20;;;0.20;;
29934;SDS011;19905;53.370;-6.314;2024-01-30T05:02:23;0.20;;;0.20;;
29934;SDS011;19905;53.370;-6.314;2024-01-30T05:04:52;0.20;;;0.20;;
29934;SDS011;19905;53.370;-6.314;2024-01-30T05:07:20;0.20;;;0.20;;
29934;SDS011;19905;53.370;-6.314;2024-01-30T05:09:49;0.30;;;0.30;;
29934;SDS011;19905;53.370;-6.314;2024-01-30T05:12:21;0.13;;;0.13;;
29934;SDS011;19905;53.370;-6.314;2024-01-30T05:14:50;0.30;;;0.30;;
29934;SDS011;19905;53.370;-6.314;2024-01-30T05:17:19;0.20;;;0.20;;
29934;SDS011;19905;53.370;-6.314;2024-01-30T05:19:48;0.20;;;0.20;;
29934;SDS011;19905;53.370;-6.314;2024-01-30T05:22:16;0.25;;;0.25;;
29934;SDS011;19905;53.370;-6.314;2024-01-30T05:24:45;0.43;;;0.43;;
29934;SDS011;19905;53.370;-6.314;2024-01-30T05:27:13;0.20;;;0.20;;
29934;SDS011;19905;53.370;-6.314;2024-01-30T05:29:42;0.40;;;0.40;;
29934;SDS011;19905;53.370;-6.314;2024-01-30T05:32:10;0.30;;;0.30;;
29934;SDS011;19905;53.370;-6.314;2024-01-30T05:34:40;0.30;;;0.30;;
29934;SDS011;19905;53.370;-6.314;2024-01-30T05:37:08;0.30;;;0.30;;
29934;SDS011;19905;53.370;-6.314;2024-01-30T05:39:41;0.20;;;0.20;;
29934;SDS011;19905;53.370;-6.314;2024-01-30T05:42:09;0.30;;;0.30;;
29934;SDS011;19905;53.370;-6.314;2024-01-30T05:44:38;0.20;;;0.20;;
29934;SDS011;19905;53.370;-6.314;2024-01-30T05:47:06;0.30;;;0.30;;
29934;SDS011;19905;53.370;-6.314;2024-01-30T05:49:36;0.30;;;0.30;;
29934;SDS011;19905;53.370;-6.314;2024-01-30T05:52:07;0.20;;;0.20;;
29934;SDS011;19905;53.370;-6.314;2024-01-30T05:54:36;0.30;;;0.30;;
29934;SDS011;19905;53.370;-6.314;2024-01-30T05:57:05;0.20;;;0.20;;
29934;SDS011;19905;53.370;-6.314;2024-01-30T05:59:36;0.25;;;0.25;;
29934;SDS011;19905;53.370;-6.314;2024-01-30T06:02:07;1.00;;;1.00;;
29934;SDS011;19905;53.370;-6.314;2024-01-30T06:04:36;0.30;;;0.30;;
29934;SDS011;19905;53.370;-6.314;2024-01-30T06:07:06;0.40;;;0.40;;
29934;SDS011;19905;53.370;-6.314;2024-01-30T06:09:35;0.40;;;0.40;;
29934;SDS011;19905;53.370;-6.314;2024-01-30T06:12:06;0.50;;;0.50;;
29934;SDS011;19905;53.370;-6.314;2024-01-30T06:14:34;0.30;;;0.30;;
29934;SDS011;19905;53.370;-6.314;2024-01-30T06:17:03;1.10;;;1.05;;
29934;SDS011;19905;53.370;-6.314;2024-01-30T06:19:31;0.20;;;0.20;;
29934;SDS011;19905;53.370;-6.314;2024-01-30T06:22:01;0.55;;;0.55;;
29934;SDS011;19905;53.370;-6.314;2024-01-30T06:24:31;0.30;;;0.30;;
29934;SDS011;19905;53.370;-6.314;2024-01-30T06:27:01;0.28;;;0.28;;
29934;SDS011;19905;53.370;-6.314;2024-01-30T06:29:29;1.85;;;0.95;;
29934;SDS011;19905;53.370;-6.314;2024-01-30T06:31:58;0.30;;;0.30;;
29934;SDS011;19905;53.370;-6.314;2024-01-30T06:34:27;1.55;;;1.40;;
29934;SDS011;19905;53.370;-6.314;2024-01-30T06:36:56;0.40;;;0.40;;
29934;SDS011;19905;53.370;-6.314;2024-01-30T06:39:25;0.85;;;0.77;;
29934;SDS011;19905;53.370;-6.314;2024-01-30T06:41:55;0.25;;;0.25;;
29934;SDS011;19905;53.370;-6.314;2024-01-30T06:44:24;0.20;;;0.20;;
29934;SDS011;19905;53.370;-6.314;2024-01-30T06:46:56;1.80;;;0.57;;
29934;SDS011;19905;53.370;-6.314;2024-01-30T06:49:26;0.30;;;0.30;;
29934;SDS011;19905;53.370;-6.314;2024-01-30T06:51:55;0.35;;;0.35;;
29934;SDS011;19905;53.370;-6.314;2024-01-30T06:54:24;0.30;;;0.30;;
29934;SDS011;19905;53.370;-6.314;2024-01-30T06:56:55;0.20;;;0.20;;
29934;SDS011;19905;53.370;-6.314;2024-01-30T06:59:24;0.32;;;0.32;;
29934;SDS011;19905;53.370;-6.314;2024-01-30T07:01:53;0.32;;;0.32;;
29934;SDS011;19905;53.370;-6.314;2024-01-30T07:04:22;0.30;;;0.30;;
29934;SDS011;19905;53.370;-6.314;2024-01-30T07:06:51;0.60;;;0.60;;
29934;SDS011;19905;53.370;-6.314;2024-01-30T07:09:20;0.10;;;0.10;;
29934;SDS011;19905;53.370;-6.314;2024-01-30T07:11:50;17.40;;;3.22;;
29934;SDS011;19905;53.370;-6.314;2024-01-30T07:14:20;17.77;;;3.72;;
29934;SDS011;19905;53.370;-6.314;2024-01-30T07:16:48;17.20;;;4.00;;
29934;SDS011;19905;53.370;-6.314;2024-01-30T07:19:17;17.70;;;3.67;;
29934;SDS011;19905;53.370;-6.314;2024-01-30T07:21:46;13.25;;;3.38;;
29934;SDS011;19905;53.370;-6.314;2024-01-30T07:24:14;27.23;;;3.60;;
29934;SDS011;19905;53.370;-6.314;2024-01-30T07:26:43;14.52;;;3.63;;
29934;SDS011;19905;53.370;-6.314;2024-01-30T07:29:11;23.67;;;4.10;;
29934;SDS011;19905;53.370;-6.314;2024-01-30T07:31:41;11.00;;;2.97;;
29934;SDS011;19905;53.370;-6.314;2024-01-30T07:34:09;10.43;;;3.15;;
29934;SDS011;19905;53.370;-6.314;2024-01-30T07:36:37;16.73;;;3.63;;
29934;SDS011;19905;53.370;-6.314;2024-01-30T07:39:05;17.10;;;4.07;;
29934;SDS011;19905;53.370;-6.314;2024-01-30T07:41:34;17.45;;;3.50;;
29934;SDS011;19905;53.370;-6.314;2024-01-30T07:44:02;19.60;;;4.43;;
29934;SDS011;19905;53.370;-6.314;2024-01-30T07:46:30;18.45;;;3.53;;
29934;SDS011;19905;53.370;-6.314;2024-01-30T07:49:00;15.23;;;3.42;;
29934;SDS011;19905;53.370;-6.314;2024-01-30T07:51:30;16.70;;;3.83;;
29934;SDS011;19905;53.370;-6.314;2024-01-30T07:53:59;17.95;;;4.03;;
29934;SDS011;19905;53.370;-6.314;2024-01-30T07:56:28;19.65;;;3.50;;
29934;SDS011;19905;53.370;-6.314;2024-01-30T07:58:56;19.17;;;4.13;;
29934;SDS011;19905;53.370;-6.314;2024-01-30T08:01:25;14.70;;;3.50;;
29934;SDS011;19905;53.370;-6.314;2024-01-30T08:03:55;19.33;;;3.97;;
29934;SDS011;19905;53.370;-6.314;2024-01-30T08:06:25;17.10;;;3.63;;
29934;SDS011;19905;53.370;-6.314;2024-01-30T08:08:53;19.75;;;3.75;;
29934;SDS011;19905;53.370;-6.314;2024-01-30T08:11:22;16.45;;;3.55;;
29934;SDS011;19905;53.370;-6.314;2024-01-30T08:13:53;18.08;;;4.03;;
29934;SDS011;19905;53.370;-6.314;2024-01-30T08:16:21;16.65;;;3.58;;
29934;SDS011;19905;53.370;-6.314;2024-01-30T08:18:50;17.48;;;3.92;;
29934;SDS011;19905;53.370;-6.314;2024-01-30T08:21:20;21.80;;;4.05;;
29934;SDS011;19905;53.370;-6.314;2024-01-30T08:23:50;22.15;;;3.90;;
29934;SDS011;19905;53.370;-6.314;2024-01-30T08:26:19;14.27;;;3.13;;
29934;SDS011;19905;53.370;-6.314;2024-01-30T08:28:47;20.88;;;4.22;;
29934;SDS011;19905;53.370;-6.314;2024-01-30T08:31:17;19.90;;;4.00;;
29934;SDS011;19905;53.370;-6.314;2024-01-30T08:33:46;19.55;;;3.85;;
29934;SDS011;19905;53.370;-6.314;2024-01-30T08:36:16;19.23;;;3.67;;
29934;SDS011;19905;53.370;-6.314;2024-01-30T08:38:44;14.48;;;3.78;;
29934;SDS011;19905;53.370;-6.314;2024-01-30T08:41:14;21.05;;;4.00;;
29934;SDS011;19905;53.370;-6.314;2024-01-30T08:43:42;15.68;;;3.60;;
29934;SDS011;19905;53.370;-6.314;2024-01-30T08:46:11;14.95;;;4.15;;
29934;SDS011;19905;53.370;-6.314;2024-01-30T08:48:40;31.02;;;14.30;;
29934;SDS011;19905;53.370;-6.314;2024-01-30T08:51:09;23.83;;;4.70;;
29934;SDS011;19905;53.370;-6.314;2024-01-30T08:53:38;12.77;;;3.60;;
29934;SDS011;19905;53.370;-6.314;2024-01-30T08:56:06;15.05;;;3.88;;
29934;SDS011;19905;53.370;-6.314;2024-01-30T08:58:36;17.10;;;4.35;;
29934;SDS011;19905;53.370;-6.314;2024-01-30T09:01:04;18.77;;;4.47;;
29934;SDS011;19905;53.370;-6.314;2024-01-30T09:03:33;15.85;;;3.65;;
29934;SDS011;19905;53.370;-6.314;2024-01-30T09:06:01;14.75;;;3.88;;
29934;SDS011;19905;53.370;-6.314;2024-01-30T09:08:30;24.38;;;4.60;;
29934;SDS011;19905;53.370;-6.314;2024-01-30T09:10:58;21.40;;;4.40;;
29934;SDS011;19905;53.370;-6.314;2024-01-30T09:13:26;19.70;;;4.07;;
29934;SDS011;19905;53.370;-6.314;2024-01-30T09:15:56;15.95;;;3.78;;
29934;SDS011;19905;53.370;-6.314;2024-01-30T09:18:25;16.58;;;4.25;;
29934;SDS011;19905;53.370;-6.314;2024-01-30T09:20:53;18.52;;;4.03;;
29934;SDS011;19905;53.370;-6.314;2024-01-30T09:23:21;16.90;;;4.22;;
29934;SDS011;19905;53.370;-6.314;2024-01-30T09:25:50;25.27;;;3.88;;
29934;SDS011;19905;53.370;-6.314;2024-01-30T09:28:18;19.38;;;4.10;;
29934;SDS011;19905;53.370;-6.314;2024-01-30T09:30:48;19.25;;;3.88;;
29934;SDS011;19905;53.370;-6.314;2024-01-30T09:33:17;19.90;;;4.35;;
29934;SDS011;19905;53.370;-6.314;2024-01-30T09:35:47;17.98;;;4.03;;
29934;SDS011;19905;53.370;-6.314;2024-01-30T09:38:15;20.13;;;4.40;;
29934;SDS011;19905;53.370;-6.314;2024-01-30T09:40:43;15.80;;;4.05;;
29934;SDS011;19905;53.370;-6.314;2024-01-30T09:43:13;12.02;;;4.20;;
29934;SDS011;19905;53.370;-6.314;2024-01-30T09:45:44;14.27;;;3.75;;
29934;SDS011;19905;53.370;-6.314;2024-01-30T09:48:12;19.13;;;4.00;;
29934;SDS011;19905;53.370;-6.314;2024-01-30T09:50:42;13.40;;;4.07;;
29934;SDS011;19905;53.370;-6.314;2024-01-30T09:53:10;19.50;;;4.03;;
29934;SDS011;19905;53.370;-6.314;2024-01-30T09:55:40;16.70;;;4.38;;
29934;SDS011;19905;53.370;-6.314;2024-01-30T09:58:11;18.98;;;4.78;;
29934;SDS011;19905;53.370;-6.314;2024-01-30T10:00:40;17.23;;;4.47;;
29934;SDS011;19905;53.370;-6.314;2024-01-30T10:03:08;14.40;;;3.92;;
29934;SDS011;19905;53.370;-6.314;2024-01-30T10:05:36;22.58;;;4.15;;
29934;SDS011;19905;53.370;-6.314;2024-01-30T10:08:07;18.02;;;4.18;;
29934;SDS011;19905;53.370;-6.314;2024-01-30T10:10:36;15.60;;;3.85;;
29934;SDS011;19905;53.370;-6.314;2024-01-30T10:13:04;20.10;;;3.78;;
29934;SDS011;19905;53.370;-6.314;2024-01-30T10:15:32;16.27;;;4.20;;
29934;SDS011;19905;53.370;-6.314;2024-01-30T10:18:02;14.02;;;3.28;;
29934;SDS011;19905;53.370;-6.314;2024-01-30T10:20:30;19.33;;;3.95;;
29934;SDS011;19905;53.370;-6.314;2024-01-30T10:22:59;20.80;;;4.18;;
29934;SDS011;19905;53.370;-6.314;2024-01-30T10:25:29;19.55;;;3.72;;
29934;SDS011;19905;53.370;-6.314;2024-01-30T10:27:59;12.63;;;3.83;;
29934;SDS011;19905;53.370;-6.314;2024-01-30T10:30:27;15.25;;;3.85;;
29934;SDS011;19905;53.370;-6.314;2024-01-30T10:32:58;20.65;;;4.20;;
29934;SDS011;19905;53.370;-6.314;2024-01-30T10:35:27;17.45;;;3.58;;
29934;SDS011;19905;53.370;-6.314;2024-01-30T10:37:56;14.52;;;4.53;;
29934;SDS011;19905;53.370;-6.314;2024-01-30T10:40:26;19.73;;;4.35;;
29934;SDS011;19905;53.370;-6.314;2024-01-30T10:42:56;16.65;;;3.25;;
29934;SDS011;19905;53.370;-6.314;2024-01-30T10:45:30;20.02;;;4.00;;
29934;SDS011;19905;53.370;-6.314;2024-01-30T10:47:59;14.30;;;3.53;;
29934;SDS011;19905;53.370;-6.314;2024-01-30T10:50:29;16.58;;;3.42;;
29934;SDS011;19905;53.370;-6.314;2024-01-30T10:52:59;15.75;;;3.63;;
29934;SDS011;19905;53.370;-6.314;2024-01-30T10:55:28;13.07;;;3.05;;
29934;SDS011;19905;53.370;-6.314;2024-01-30T10:57:58;13.70;;;2.63;;
29934;SDS011;19905;53.370;-6.314;2024-01-30T11:00:27;22.33;;;3.10;;
29934;SDS011;19905;53.370;-6.314;2024-01-30T11:02:56;16.20;;;3.10;;
29934;SDS011;19905;53.370;-6.314;2024-01-30T11:05:25;15.00;;;3.08;;
29934;SDS011;19905;53.370;-6.314;2024-01-30T11:07:59;15.40;;;3.00;;
29934;SDS011;19905;53.370;-6.314;2024-01-30T11:10:44;14.70;;;3.35;;
29934;SDS011;19905;53.370;-6.314;2024-01-30T11:13:14;10.23;;;2.53;;
29934;SDS011;19905;53.370;-6.314;2024-01-30T11:15:43;16.10;;;3.13;;
29934;SDS011;19905;53.370;-6.314;2024-01-30T11:18:11;9.32;;;2.50;;
29934;SDS011;19905;53.370;-6.314;2024-01-30T11:20:40;9.70;;;2.60;;
29934;SDS011;19905;53.370;-6.314;2024-01-30T11:23:15;13.32;;;2.35;;
29934;SDS011;19905;53.370;-6.314;2024-01-30T11:25:43;9.98;;;2.78;;
29934;SDS011;19905;53.370;-6.314;2024-01-30T11:28:16;9.18;;;2.55;;
29934;SDS011;19905;53.370;-6.314;2024-01-30T11:30:45;16.15;;;2.75;;
29934;SDS011;19905;53.370;-6.314;2024-01-30T11:33:14;16.38;;;2.58;;
29934;SDS011;19905;53.370;-6.314;2024-01-30T11:35:43;11.70;;;2.65;;
29934;SDS011;19905;53.370;-6.314;2024-01-30T11:38:13;12.88;;;2.20;;
29934;SDS011;19905;53.370;-6.314;2024-01-30T11:40:41;16.92;;;3.15;;
29934;SDS011;19905;53.370;-6.314;2024-01-30T11:43:11;15.05;;;2.72;;
29934;SDS011;19905;53.370;-6.314;2024-01-30T11:45:41;10.00;;;2.60;;
29934;SDS011;19905;53.370;-6.314;2024-01-30T11:48:11;10.85;;;2.53;;
29934;SDS011;19905;53.370;-6.314;2024-01-30T11:50:40;13.45;;;2.50;;
29934;SDS011;19905;53.370;-6.314;2024-01-30T11:53:09;14.55;;;3.08;;
29934;SDS011;19905;53.370;-6.314;2024-01-30T11:55:38;18.95;;;4.32;;
29934;SDS011;19905;53.370;-6.314;2024-01-30T11:58:07;15.77;;;3.58;;
29934;SDS011;19905;53.370;-6.314;2024-01-30T12:00:35;12.85;;;3.05;;
29934;SDS011;19905;53.370;-6.314;2024-01-30T12:03:05;14.85;;;3.25;;
29934;SDS011;19905;53.370;-6.314;2024-01-30T12:05:34;13.90;;;2.60;;
29934;SDS011;19905;53.370;-6.314;2024-01-30T12:08:03;10.52;;;2.30;;
29934;SDS011;19905;53.370;-6.314;2024-01-30T12:10:32;9.20;;;2.25;;
29934;SDS011;19905;53.370;-6.314;2024-01-30T12:13:01;7.55;;;1.83;;
29934;SDS011;19905;53.370;-6.314;2024-01-30T12:15:29;10.73;;;2.50;;
29934;SDS011;19905;53.370;-6.314;2024-01-30T12:18:05;10.30;;;2.63;;
29934;SDS011;19905;53.370;-6.314;2024-01-30T12:20:34;8.48;;;1.90;;
29934;SDS011;19905;53.370;-6.314;2024-01-30T12:23:03;10.27;;;2.17;;
29934;SDS011;19905;53.370;-6.314;2024-01-30T12:25:32;7.95;;;2.20;;
29934;SDS011;19905;53.370;-6.314;2024-01-30T12:28:00;8.82;;;1.92;;
29934;SDS011;19905;53.370;-6.314;2024-01-30T12:30:29;10.30;;;1.95;;
29934;SDS011;19905;53.370;-6.314;2024-01-30T12:32:57;8.35;;;2.20;;
29934;SDS011;19905;53.370;-6.314;2024-01-30T12:35:27;11.43;;;2.10;;
29934;SDS011;19905;53.370;-6.314;2024-01-30T12:37:59;8.55;;;2.38;;
29934;SDS011;19905;53.370;-6.314;2024-01-30T12:40:27;6.72;;;1.98;;
29934;SDS011;19905;53.370;-6.314;2024-01-30T12:42:56;8.50;;;1.90;;
29934;SDS011;19905;53.370;-6.314;2024-01-30T12:45:25;6.85;;;2.10;;
29934;SDS011;19905;53.370;-6.314;2024-01-30T12:47:53;8.70;;;1.88;;
29934;SDS011;19905;53.370;-6.314;2024-01-30T12:50:22;9.50;;;2.10;;
29934;SDS011;19905;53.370;-6.314;2024-01-30T12:52:52;10.80;;;1.98;;
29934;SDS011;19905;53.370;-6.314;2024-01-30T12:55:20;9.57;;;1.77;;
29934;SDS011;19905;53.370;-6.314;2024-01-30T12:57:49;7.22;;;1.92;;
29934;SDS011;19905;53.370;-6.314;2024-01-30T13:00:17;8.13;;;1.85;;
29934;SDS011;19905;53.370;-6.314;2024-01-30T13:02:46;5.60;;;1.70;;
29934;SDS011;19905;53.370;-6.314;2024-01-30T13:05:15;9.93;;;1.95;;
29934;SDS011;19905;53.370;-6.314;2024-01-30T13:07:43;12.10;;;2.10;;
29934;SDS011;19905;53.370;-6.314;2024-01-30T13:10:13;8.63;;;2.28;;
29934;SDS011;19905;53.370;-6.314;2024-01-30T13:12:41;7.30;;;1.60;;
29934;SDS011;19905;53.370;-6.314;2024-01-30T13:15:10;7.32;;;1.73;;
29934;SDS011;19905;53.370;-6.314;2024-01-30T13:17:39;10.45;;;1.90;;
29934;SDS011;19905;53.370;-6.314;2024-01-30T13:20:09;7.60;;;1.85;;
29934;SDS011;19905;53.370;-6.314;2024-01-30T13:22:38;9.98;;;1.90;;
29934;SDS011;19905;53.370;-6.314;2024-01-30T13:25:07;4.57;;;1.25;;
29934;SDS011;19905;53.370;-6.314;2024-01-30T13:27:37;8.40;;;1.58;;
29934;SDS011;19905;53.370;-6.314;2024-01-30T13:30:07;8.13;;;1.55;;
29934;SDS011;19905;53.370;-6.314;2024-01-30T13:32:36;5.35;;;1.20;;
29934;SDS011;19905;53.370;-6.314;2024-01-30T13:35:06;6.22;;;1.33;;
29934;SDS011;19905;53.370;-6.314;2024-01-30T13:37:35;4.53;;;1.25;;
29934;SDS011;19905;53.370;-6.314;2024-01-30T13:40:04;6.57;;;1.30;;
29934;SDS011;19905;53.370;-6.314;2024-01-30T13:42:39;5.70;;;1.00;;
29934;SDS011;19905;53.370;-6.314;2024-01-30T13:45:08;5.13;;;1.23;;
29934;SDS011;19905;53.370;-6.314;2024-01-30T13:47:38;4.07;;;1.30;;
29934;SDS011;19905;53.370;-6.314;2024-01-30T13:50:06;7.38;;;1.30;;
29934;SDS011;19905;53.370;-6.314;2024-01-30T13:52:35;5.82;;;1.30;;
29934;SDS011;19905;53.370;-6.314;2024-01-30T13:55:10;9.57;;;1.80;;
29934;SDS011;19905;53.370;-6.314;2024-01-30T13:57:41;5.32;;;1.40;;
29934;SDS011;19905;53.370;-6.314;2024-01-30T14:00:09;4.50;;;1.27;;
29934;SDS011;19905;53.370;-6.314;2024-01-30T14:02:39;4.53;;;1.20;;
29934;SDS011;19905;53.370;-6.314;2024-01-30T14:05:08;10.18;;;1.50;;
29934;SDS011;19905;53.370;-6.314;2024-01-30T14:07:38;4.00;;;1.50;;
29934;SDS011;19905;53.370;-6.314;2024-01-30T14:10:09;4.53;;;1.38;;
29934;SDS011;19905;53.370;-6.314;2024-01-30T14:12:42;6.75;;;1.40;;
29934;SDS011;19905;53.370;-6.314;2024-01-30T14:15:12;6.13;;;1.58;;
29934;SDS011;19905;53.370;-6.314;2024-01-30T14:17:55;5.72;;;1.30;;
29934;SDS011;19905;53.370;-6.314;2024-01-30T14:20:25;8.57;;;1.25;;
29934;SDS011;19905;53.370;-6.314;2024-01-30T14:25:48;5.93;;;1.65;;
29934;SDS011;19905;53.370;-6.314;2024-01-30T14:28:19;7.13;;;1.75;;
29934;SDS011;19905;53.370;-6.314;2024-01-30T14:30:48;6.47;;;1.50;;
29934;SDS011;19905;53.370;-6.314;2024-01-30T14:33:16;8.27;;;1.23;;
29934;SDS011;19905;53.370;-6.314;2024-01-30T14:35:44;4.70;;;1.00;;
29934;SDS011;19905;53.370;-6.314;2024-01-30T14:38:13;3.88;;;1.30;;
29934;SDS011;19905;53.370;-6.314;2024-01-30T14:40:41;6.13;;;1.25;;
29934;SDS011;19905;53.370;-6.314;2024-01-30T14:43:09;4.88;;;1.30;;
29934;SDS011;19905;53.370;-6.314;2024-01-30T14:45:39;8.30;;;1.98;;
29934;SDS011;19905;53.370;-6.314;2024-01-30T14:48:08;6.93;;;1.55;;